Palma De Mallorca, Spain

3:58 PM CEST on September 02, 2014 (GMT +0200)
Ciudad Jardin | Change Station
CLOSE
Current Station
Personal Weather Station
Location: Palma De Mallorca, ILLES BALEARS
Elevation: 20 ft
Nearby Weather Stations

Elev 20 ft 39.55 °N, 2.69 °E | Updated 0 second ago

Partly Cloudy
Partly Cloudy
82.2 °F
Feels Like 88 °F
N
8.1
Wind Variable Wind from South
Gusts 8.1 mph

Today
High -- | Low -- °F
--% Chance of Precip.
Yesterday
High -- | Low -- °F
Precip. -- in
7:18 AM 8:18 PM
First Quarter, 51% visible
Pressure 29.92 in
Visibility 6.2 miles
Clouds Few 2200 ft
Heat Index 88 °F
Dew Point 74 °F
Humidity 75%
Rainfall 0.00 in
Snow Depth Not available.
UV 8 out of 12
Pollen Not available.
Air Quality Not available.
Flu Activity Not available.
METAR LEPA 021330Z 21010KT 180V270 9999 FEW022 29/21 Q1013 NOSIG

More Conditions Fewer Conditions

Pressure 29.92 in
Visibility 6.2 miles
Clouds Few 2200 ft
Heat Index 88 °F
Dew Point 74 °F
Humidity 75%
Rainfall 0.00 in
Snow Depth Not available.
UV 8 out of 12
Pollen Not available.
Air Quality Not available.
Flu Activity Not available.
METAR LEPA 021330Z 21010KT 180V270 9999 FEW022 29/21 Q1013 NOSIG

More Conditions Fewer Conditions

10-Day Weather Forecast

Almanac

Astronomy

Sep. 02, 2014 Rise Set
Actual Time 7:18 AM CEST 8:18 PM CEST
Civil Twilight 6:50 AM CEST 8:46 PM CEST
Nautical Twilight 6:17 AM CEST 9:19 PM CEST
Astronomical Twilight 5:43 AM CEST 9:53 PM CEST
Moon 2:45 PM CEST 12:10 AM CEST
Length Of Visible Light 13h 55m
Length of Day
13h 00m
Tomorrow will be 2m 31s shorter.
First Quarter, 51% of the Moon is Illuminated
Today
First Quarter
Sep 8
Full
Sep 15
Last Quarter
Sep 24
New
Oct 1
First Quarter

Yesterday's Extremes

Country Highs Country Lows

Community

WunderPhotos

Upload Photos

1,749,656 photos uploaded!

Nearby

Snow Depth

Not available.

Earthquake Activity

City Distance Mag. Time & Date
No recent earthquake activity has been reported nearby.
Minimum magnitude displayed is 2.5.

Coastal Water Temperatures

Place Temperature
No Stations Reporting

Nearby Weather Stations